Terminal Aerodrome Forecast
Issued by NWS

Home | Current Version | Previous Version | Graphics & Text | Print | Product List | Glossary On
Versions: 1 2 3 4 5 6 7 8 9 10 11 12 13 14 15 16 17 18 19 20
000
FTUS43 KMPX 012320
TAFRNH
TAF
KRNH 012320Z 0200/0224 15003KT P6SM SCT070 BKN150 OVC250
      TEMPO 0209/0212 4SM -TSRA BKN050CB OVC100
     FM021200 16006KT P6SM BKN080
     FM022000 16010KT P6SM SCT050 PROB30 0221/0224 5SM -TSRA
      BKN050CB=

USA.gov is the U.S. government's official web portal to all federal, state and local government web resources and services.